Home   Weather   Iran   Yazd   Past weeks
Flag for Iran

Past Weather in Yazd, Iran — Yesterday and Last 2 Weeks

Currently: 75 °F. Sunny. (Weather station: Yazd Airport, Iran). See more current weather

Past Weather in Yazd — Graph

°F

Yazd Temperature Yesterday

Maximum temperature yesterday: 73 °F (at 4:30 pm)
Minimum temperature yesterday: 43 °F (at 5:30 am)
Average temperature yesterday: 58 °F

High & Low Weather Summary for the Past Weeks

 TemperatureHumidityPressure
High77 °F (Mar 8, 3:30 pm)100% (Feb 25, 8:30 am)30.30 "Hg (Feb 25, 8:30 am)
Low32 °F (Feb 25, 8:30 am)8% (Mar 8, 3:00 pm)29.89 "Hg (Mar 8, 4:00 pm)
Average53 °F43%30.11 "Hg
* Reported Feb 21 5:30 pm — Mar 8 5:30 pm, Yazd. Weather by CustomWeather, © 2021

Note: Actual official high and low records may vary slightly from our data, if they occured in-between our weather recording intervals... More about our weather records

Yazd Weather History for the Previous 24 Hours

Scroll right to see more
 ConditionsComfort  
Time TempWeatherWind HumidityBarometerVisibility
5:30 pm
Mon, Mar 8
75 °FSunny.2 mph8%29.89 "Hg10 mi
4:30 pm75 °FSunny.2 mph8%29.92 "Hg10 mi
4:00 pm75 °FSunny.2 mph8%29.89 "Hg10 mi
3:30 pm77 °FSunny.2 mph8%29.92 "Hg10 mi
3:00 pm75 °FSunny.7 mph8%29.92 "Hg10 mi
2:30 pm73 °FSunny.5 mph9%29.92 "Hg10 mi
2:00 pm73 °FSunny.5 mph9%29.95 "Hg10 mi
1:30 pm73 °FSunny.2 mph9%29.95 "Hg10 mi
12:30 pm72 °FSunny.7 mph12%30.01 "Hg10 mi
12:00 pm70 °FSunny.5 mph15%30.01 "Hg10 mi
11:30 am68 °FSunny.5 mph16%30.01 "Hg10 mi
11:00 am66 °FSunny.5 mph17%30.04 "Hg10 mi
10:30 am64 °FSunny.7 mph18%30.04 "Hg10 mi
10:00 am64 °FSunny.2 mph16%30.04 "Hg10 mi
9:30 am63 °FSunny.2 mph19%30.04 "Hg10 mi
8:30 am55 °FSunny.5 mph24%30.04 "Hg10 mi
8:00 am55 °FSunny.2 mph26%30.04 "Hg10 mi
7:30 am50 °FSunny.5 mph30%30.01 "Hg10 mi
7:00 am46 °FSunny.2 mph34%30.01 "Hg10 mi
6:30 am43 °FClear.2 mph36%30.01 "Hg10 mi
6:00 am43 °FClear.2 mph36%29.98 "Hg10 mi
5:30 am46 °FClear.5 mph32%29.98 "Hg10 mi
4:30 am48 °FClear.5 mph29%29.95 "Hg10 mi
3:30 am52 °FClear.5 mph28%29.95 "Hg10 mi
2:30 am52 °FClear.2 mph24%29.98 "Hg10 mi
1:30 am54 °FClear.5 mph24%29.98 "Hg10 mi
12:30 am55 °FClear.5 mph23%29.98 "Hg10 mi
11:30 pm
Sun, Mar 7
57 °FClear.5 mph20%29.98 "Hg10 mi
11:00 pm55 °FClear.5 mph23%29.98 "Hg10 mi
10:30 pm61 °FClear.5 mph19%29.98 "Hg10 mi
10:00 pm61 °FClear.5 mph19%29.98 "Hg10 mi
9:30 pm63 °FClear.5 mph17%30.01 "Hg10 mi
9:00 pm61 °FClear.5 mph19%30.01 "Hg10 mi
8:30 pm57 °FClear.5 mph21%29.98 "Hg10 mi
8:00 pm59 °FClear.2 mph20%30.01 "Hg10 mi
7:30 pm61 °FClear.No wind19%29.98 "Hg10 mi
7:00 pm64 °FClear.No wind16%29.98 "Hg10 mi
6:30 pm68 °FClear.2 mph13%29.98 "Hg10 mi
6:00 pm68 °FSunny.2 mph13%29.98 "Hg10 mi
Weather by CustomWeather, © 2021

See weather overview